createdAt,value
2023-01-19T00:01:31.949Z,97051.50
2023-01-19T00:03:59.372Z,97041.44
2023-01-19T00:06:27.194Z,97045.13
2023-01-19T00:08:54.498Z,97041.88
2023-01-19T00:11:22.706Z,97045.34
2023-01-19T00:13:50.679Z,97044.53
2023-01-19T00:16:19.767Z,97052.75
2023-01-19T00:18:47.826Z,97051.13
2023-01-19T00:21:15.759Z,97056.44
2023-01-19T00:23:47.181Z,97051.13
2023-01-19T00:26:16.474Z,97057.50
2023-01-19T00:28:44.874Z,97051.34
2023-01-19T00:31:12.587Z,97047.06
2023-01-19T00:33:39.917Z,97054.81
2023-01-19T00:36:08.298Z,97050.75
2023-01-19T00:38:35.592Z,97054.66
2023-01-19T00:41:03.133Z,97054.09
2023-01-19T00:43:30.353Z,97057.78
2023-01-19T00:45:57.901Z,97058.00
2023-01-19T00:48:25.171Z,97054.53
2023-01-19T00:50:52.743Z,97055.81
2023-01-19T00:53:20.069Z,97056.63
2023-01-19T00:55:47.783Z,97049.66
2023-01-19T00:58:15.019Z,97041.94
2023-01-19T01:00:42.893Z,97044.81
2023-01-19T01:03:10.328Z,97043.78
2023-01-19T01:05:41.408Z,97043.19
2023-01-19T01:08:08.901Z,97042.38
2023-01-19T01:10:36.593Z,97033.59
2023-01-19T01:13:20.435Z,97032.19
2023-01-19T01:15:54.455Z,97027.69
2023-01-19T01:18:21.957Z,97040.38
2023-01-19T01:20:49.658Z,97033.47
2023-01-19T01:23:22.820Z,97035.06
2023-01-19T01:25:50.751Z,97032.41
2023-01-19T01:28:18.078Z,97031.81
2023-01-19T01:30:45.575Z,97042.44
2023-01-19T01:33:13.305Z,97040.84
2023-01-19T01:35:41.203Z,97050.66
2023-01-19T01:38:09.555Z,97048.22
2023-01-19T01:40:40.359Z,97042.91
2023-01-19T01:43:15.468Z,97046.59
2023-01-19T01:45:43.424Z,97045.56
2023-01-19T01:48:22.326Z,97044.97
2023-01-19T01:51:17.484Z,97034.34
2023-01-19T01:53:48.470Z,97027.41
2023-01-19T01:56:21.608Z,97020.47
2023-01-19T01:58:49.650Z,97029.25
2023-01-19T02:01:36.230Z,97039.88
2023-01-19T02:04:03.932Z,97049.69
2023-01-19T02:06:31.661Z,97043.81
2023-01-19T02:09:25.937Z,97046.66
2023-01-19T02:12:13.498Z,97044.84
2023-01-19T02:14:40.885Z,97064.25
2023-01-19T02:17:08.624Z,97056.50
2023-01-19T02:19:43.351Z,97061.81
2023-01-19T02:22:27.574Z,97052.44
2023-01-19T02:24:54.981Z,97054.88
2023-01-19T02:27:22.643Z,97062.25
2023-01-19T02:29:49.928Z,97062.25
2023-01-19T02:32:17.509Z,97065.94
2023-01-19T02:34:44.823Z,97071.25
2023-01-19T02:37:16.081Z,97062.25
2023-01-19T02:39:52.401Z,97076.94
2023-01-19T02:42:27.453Z,97071.63
2023-01-19T02:44:56.100Z,97074.06
2023-01-19T02:47:24.410Z,97065.06
2023-01-19T02:49:59.187Z,97069.78
2023-01-19T02:52:27.151Z,97069.78
2023-01-19T02:55:21.148Z,97070.38
2023-01-19T02:58:10.939Z,97067.91
2023-01-19T03:01:10.194Z,97068.75
2023-01-19T03:03:43.807Z,97074.06
2023-01-19T03:06:30.549Z,97072.44
2023-01-19T03:09:17.953Z,97076.13
2023-01-19T03:11:53.461Z,97084.09
2023-01-19T03:14:25.104Z,97077.75
2023-01-19T03:16:59.472Z,97063.88
2023-01-19T03:19:31.913Z,97075.31
2023-01-19T03:22:04.061Z,97065.50
2023-01-19T03:24:37.926Z,97069.97
2023-01-19T03:27:14.019Z,97072.88
2023-01-19T03:29:47.880Z,97069.19
2023-01-19T03:32:17.965Z,97067.56
2023-01-19T03:34:48.650Z,97072.88
2023-01-19T03:37:19.023Z,97072.88
2023-01-19T03:39:46.748Z,97070.22
2023-01-19T03:42:16.480Z,97067.56
2023-01-19T03:44:46.507Z,97072.88
2023-01-19T03:47:15.048Z,97076.56
2023-01-19T03:49:45.648Z,97078.63
2023-01-19T03:52:12.980Z,97090.09
2023-01-19T03:54:41.023Z,97087.63
2023-01-19T03:57:08.425Z,97085.56
2023-01-19T03:59:36.698Z,97091.91
2023-01-19T04:02:03.988Z,97093.75
2023-01-19T04:04:31.637Z,97087.63
2023-01-19T04:06:58.974Z,97087.63
2023-01-19T04:09:27.139Z,97096.63
2023-01-19T04:11:54.504Z,97092.94
2023-01-19T04:14:22.338Z,97087.63
2023-01-19T04:16:49.859Z,97094.81
2023-01-19T04:19:17.369Z,97098.47
2023-01-19T04:21:44.684Z,97097.66
2023-01-19T04:24:12.321Z,97099.53
2023-01-19T04:26:39.619Z,97110.94
2023-01-19T04:29:07.265Z,97119.13
2023-01-19T04:31:35.678Z,97119.94
2023-01-19T04:34:04.197Z,97107.69
2023-01-19T04:36:31.462Z,97113.00
2023-01-19T04:38:59.050Z,97123.63
2023-01-19T04:41:26.349Z,97118.31
2023-01-19T04:43:53.908Z,97113.00
2023-01-19T04:46:21.266Z,97104.25
2023-01-19T04:48:49.824Z,97116.69
2023-01-19T04:51:17.066Z,97130.78
2023-01-19T04:53:44.724Z,97131.81
2023-01-19T04:56:12.355Z,97140.81
2023-01-19T04:58:40.053Z,97141.63
2023-01-19T05:01:09.286Z,97139.19
2023-01-19T05:03:37.036Z,97145.34
2023-01-19T05:06:04.715Z,97150.66
2023-01-19T05:08:32.267Z,97153.31
2023-01-19T05:10:59.983Z,97155.94
2023-01-19T05:13:27.562Z,97146.34
2023-01-19T05:15:54.869Z,97151.66
2023-01-19T05:18:22.690Z,97151.66
2023-01-19T05:20:49.914Z,97159.63
2023-01-19T05:23:17.423Z,97158.00
2023-01-19T05:25:44.870Z,97142.09
2023-01-19T05:28:12.482Z,97149.00
2023-01-19T05:30:39.980Z,97140.44
2023-01-19T05:33:07.549Z,97143.09
2023-01-19T05:35:36.414Z,97144.16
2023-01-19T05:38:04.267Z,97155.56
2023-01-19T05:40:31.598Z,97137.19
2023-01-19T05:43:01.199Z,97128.22
2023-01-19T05:45:28.799Z,97122.91
2023-01-19T05:47:56.780Z,97121.25
2023-01-19T05:50:24.075Z,97130.28
2023-01-19T05:52:54.889Z,97126.56
2023-01-19T05:55:22.209Z,97123.91
2023-01-19T05:57:49.823Z,97135.59
2023-01-19T06:00:18.234Z,97127.63
2023-01-19T06:02:48.551Z,97132.09
2023-01-19T06:05:16.693Z,97124.97
2023-01-19T06:07:44.338Z,97118.81
2023-01-19T06:10:11.676Z,97112.69
2023-01-19T06:12:41.498Z,97119.66
2023-01-19T06:15:08.952Z,97122.31
2023-01-19T06:17:39.002Z,97129.22
2023-01-19T06:20:06.955Z,97134.31
2023-01-19T06:22:34.680Z,97132.47
2023-01-19T06:25:01.994Z,97135.13
2023-01-19T06:27:29.625Z,97156.38
2023-01-19T06:29:56.894Z,97161.69
2023-01-19T06:32:24.425Z,97165.97
2023-01-19T06:34:53.943Z,97167.00
2023-01-19T06:37:22.363Z,97176.59
2023-01-19T06:39:49.732Z,97177.63
2023-01-19T06:42:17.274Z,97177.63
2023-01-19T06:44:47.470Z,97185.00
2023-01-19T06:47:16.494Z,97190.28
2023-01-19T06:49:44.079Z,97194.00
2023-01-19T06:52:14.112Z,97202.97
2023-01-19T06:54:43.318Z,97209.34
2023-01-19T06:57:13.884Z,97222.63
2023-01-19T06:59:41.280Z,97230.56
2023-01-19T07:02:27.690Z,97242.22
2023-01-19T07:04:56.543Z,97252.84
2023-01-19T07:07:24.415Z,97253.88
2023-01-19T07:09:54.015Z,97253.88
2023-01-19T07:12:22.672Z,97262.84
2023-01-19T07:14:50.058Z,97254.88
2023-01-19T07:17:17.613Z,97258.59
2023-01-19T07:19:46.272Z,97256.94
2023-01-19T07:22:14.062Z,97264.91
2023-01-19T07:24:41.387Z,97262.25
2023-01-19T07:27:09.022Z,97268.41
2023-01-19T07:29:36.300Z,97266.75
2023-01-19T07:32:04.405Z,97268.00
2023-01-19T07:34:31.865Z,97266.97
2023-01-19T07:36:59.393Z,97265.56
2023-01-19T07:39:27.054Z,97262.69
2023-01-19T07:41:54.561Z,97256.59
2023-01-19T07:44:21.954Z,97254.13
2023-01-19T07:46:51.123Z,97257.84
2023-01-19T07:49:18.464Z,97252.94
2023-01-19T07:51:46.150Z,97242.31
2023-01-19T07:54:13.405Z,97261.94
2023-01-19T07:56:41.449Z,97257.66
2023-01-19T07:59:10.208Z,97266.66
2023-01-19T08:01:37.916Z,97265.59
2023-01-19T08:04:05.862Z,97275.41
2023-01-19T08:06:35.446Z,97287.28
2023-01-19T08:09:06.847Z,97286.25
2023-01-19T08:11:34.525Z,97296.25
2023-01-19T08:14:02.278Z,97297.28
2023-01-19T08:16:29.828Z,97285.84
2023-01-19T08:18:57.085Z,97303.59
2023-01-19T08:21:24.714Z,97315.25
2023-01-19T08:23:57.769Z,97308.09
2023-01-19T08:26:32.442Z,97321.56
2023-01-19T08:29:04.311Z,97314.66
2023-01-19T08:31:32.546Z,97292.63
2023-01-19T08:34:00.096Z,97313.00
2023-01-19T08:36:27.765Z,97306.09
2023-01-19T08:38:55.116Z,97297.09
2023-01-19T08:41:22.856Z,97287.72
2023-01-19T08:43:50.142Z,97303.63
2023-01-19T08:46:20.791Z,97308.13
2023-01-19T08:48:48.692Z,97299.38
2023-01-19T08:51:17.098Z,97290.59
2023-01-19T08:53:44.395Z,97287.09
2023-01-19T08:56:13.610Z,97283.66
2023-01-19T08:58:43.935Z,97297.97
2023-01-19T09:01:17.020Z,97293.47
2023-01-19T09:03:44.488Z,97295.31
2023-01-19T09:06:14.555Z,97304.88
2023-01-19T09:08:41.887Z,97315.50
2023-01-19T09:11:11.373Z,97322.84
2023-01-19T09:13:39.506Z,97321.84
2023-01-19T09:16:08.341Z,97329.81
2023-01-19T09:18:35.830Z,97328.16
2023-01-19T09:21:04.063Z,97322.84
2023-01-19T09:23:31.428Z,97319.41
2023-01-19T09:26:01.711Z,97338.78
2023-01-19T09:28:29.519Z,97352.06
2023-01-19T09:30:57.622Z,97347.78
2023-01-19T09:33:25.296Z,97341.63
2023-01-19T09:35:53.019Z,97340.84
2023-01-19T09:38:20.594Z,97338.41
2023-01-19T09:40:54.366Z,97333.91
2023-01-19T09:43:41.592Z,97323.28
2023-01-19T09:46:22.284Z,97321.66
2023-01-19T09:49:04.721Z,97321.66
2023-01-19T09:51:39.403Z,97322.69
2023-01-19T09:54:11.891Z,97329.63
2023-01-19T09:56:40.136Z,97328.59
2023-01-19T09:59:17.412Z,97332.88
2023-01-19T10:02:14.324Z,97328.59
2023-01-19T10:04:42.512Z,97318.00
2023-01-19T10:07:23.594Z,97315.94
2023-01-19T10:10:09.341Z,97309.78
2023-01-19T10:12:46.177Z,97308.97
2023-01-19T10:15:46.678Z,97308.19
2023-01-19T10:18:22.675Z,97312.69
2023-01-19T10:20:55.445Z,97302.06
2023-01-19T10:23:25.737Z,97305.72
2023-01-19T10:25:54.278Z,97292.47
2023-01-19T10:28:25.252Z,97298.81
2023-01-19T10:30:55.262Z,97293.50
2023-01-19T10:33:22.963Z,97289.81
2023-01-19T10:35:50.582Z,97290.84
2023-01-19T10:38:22.177Z,97287.38
2023-01-19T10:41:00.925Z,97292.69
2023-01-19T10:43:34.379Z,97302.47
2023-01-19T10:46:20.902Z,97298.00
2023-01-19T10:48:51.134Z,97303.31
2023-01-19T10:51:19.064Z,97307.78
2023-01-19T10:54:13.389Z,97302.47
2023-01-19T10:56:42.103Z,97297.16
2023-01-19T10:59:34.176Z,97290.25
2023-01-19T11:02:14.412Z,97295.56
2023-01-19T11:04:42.187Z,97293.91
2023-01-19T11:07:20.084Z,97288.59
2023-01-19T11:09:48.183Z,97288.59
2023-01-19T11:12:18.249Z,97283.28
2023-01-19T11:14:47.177Z,97278.00
2023-01-19T11:17:33.614Z,97273.53
2023-01-19T11:20:02.563Z,97269.00
2023-01-19T11:22:33.728Z,97261.25
2023-01-19T11:25:04.093Z,97261.47
2023-01-19T11:27:34.570Z,97253.50
2023-01-19T11:30:16.708Z,97258.00
2023-01-19T11:32:44.218Z,97258.81
2023-01-19T11:35:31.237Z,97262.50
2023-01-19T11:38:20.292Z,97258.81
2023-01-19T11:40:59.657Z,97257.19
2023-01-19T11:43:39.788Z,97262.50
2023-01-19T11:46:17.157Z,97255.59
2023-01-19T11:49:02.905Z,97259.84
2023-01-19T11:52:05.810Z,97261.47
2023-01-19T11:54:45.785Z,97272.31
2023-01-19T11:57:17.141Z,97267.81
2023-01-19T11:59:45.107Z,97273.13
2023-01-19T12:02:53.024Z,97267.81
2023-01-19T12:05:21.618Z,97262.94
2023-01-19T12:07:51.559Z,97267.22
2023-01-19T12:10:36.383Z,97267.41
2023-01-19T12:13:04.175Z,97262.94
2023-01-19T12:15:44.922Z,97270.91
2023-01-19T12:18:17.874Z,97271.91
2023-01-19T12:20:49.175Z,97273.56
2023-01-19T12:23:43.299Z,97266.59
2023-01-19T12:26:16.579Z,97271.91
2023-01-19T12:28:47.342Z,97267.41
2023-01-19T12:31:17.531Z,97270.31
2023-01-19T12:33:46.014Z,97268.66
2023-01-19T12:36:16.221Z,97264.16
2023-01-19T12:39:19.952Z,97265.81
2023-01-19T12:41:48.219Z,97267.66
2023-01-19T12:44:22.025Z,97267.03
2023-01-19T12:46:55.493Z,97269.69
2023-01-19T12:49:26.285Z,97270.72
2023-01-19T12:52:33.993Z,97265.41
2023-01-19T12:55:13.552Z,97275.22
2023-01-19T12:58:06.145Z,97273.38
2023-01-19T13:00:37.064Z,97278.66
2023-01-19T13:03:25.119Z,97276.00
2023-01-19T13:05:54.685Z,97271.75
2023-01-19T13:08:29.680Z,97281.56
2023-01-19T13:11:00.324Z,97288.69
2023-01-19T13:13:27.701Z,97283.38
2023-01-19T13:16:00.545Z,97280.94
2023-01-19T13:18:35.076Z,97281.75
2023-01-19T13:21:06.619Z,97283.59
2023-01-19T13:23:51.777Z,97293.38
2023-01-19T13:26:21.414Z,97293.38
2023-01-19T13:29:06.531Z,97302.97
2023-01-19T13:31:36.267Z,97292.78
2023-01-19T13:34:09.689Z,97294.63
2023-01-19T13:36:41.318Z,97305.44
2023-01-19T13:39:18.576Z,97314.44
2023-01-19T13:41:47.486Z,97317.09
2023-01-19T13:44:23.671Z,97313.63
2023-01-19T13:46:53.125Z,97311.19
2023-01-19T13:49:28.875Z,97320.16
2023-01-19T13:52:21.964Z,97314.88
2023-01-19T13:54:59.756Z,97326.28
2023-01-19T13:57:31.378Z,97326.50
2023-01-19T14:00:14.627Z,97332.59
2023-01-19T14:02:54.251Z,97334.44
2023-01-19T14:05:23.579Z,97337.28
2023-01-19T14:08:03.318Z,97339.94
2023-01-19T14:10:31.370Z,97338.53
2023-01-19T14:13:13.003Z,97343.84
2023-01-19T14:15:40.740Z,97349.16
2023-01-19T14:18:22.213Z,97345.09
2023-01-19T14:20:57.292Z,97343.47
2023-01-19T14:23:37.742Z,97347.94
2023-01-19T14:26:05.364Z,97341.81
2023-01-19T14:28:43.315Z,97347.13
2023-01-19T14:31:26.400Z,97349.97
2023-01-19T14:33:56.105Z,97343.88
2023-01-19T14:36:33.261Z,97355.28
2023-01-19T14:39:03.077Z,97353.66
2023-01-19T14:41:37.598Z,97358.97
2023-01-19T14:44:10.959Z,97352.88
2023-01-19T14:46:38.666Z,97360.22
2023-01-19T14:49:06.635Z,97363.66
2023-01-19T14:51:33.881Z,97358.38
2023-01-19T14:54:02.774Z,97358.38
2023-01-19T14:56:32.439Z,97354.09
2023-01-19T14:59:02.582Z,97370.00
2023-01-19T15:01:31.006Z,97364.72
2023-01-19T15:03:58.886Z,97363.06
2023-01-19T15:06:26.767Z,97373.66
2023-01-19T15:08:55.682Z,97371.81
2023-01-19T15:11:27.374Z,97374.28
2023-01-19T15:13:55.613Z,97371.63
2023-01-19T15:16:24.163Z,97368.97
2023-01-19T15:18:52.064Z,97371.63
2023-01-19T15:21:23.111Z,97374.28
2023-01-19T15:23:50.780Z,97375.31
2023-01-19T15:26:23.678Z,97376.13
2023-01-19T15:28:51.766Z,97377.97
2023-01-19T15:31:22.415Z,97378.97
2023-01-19T15:33:50.001Z,97380.63
2023-01-19T15:36:19.975Z,97380.63
2023-01-19T15:38:50.713Z,97374.47
2023-01-19T15:41:26.545Z,97379.78
2023-01-19T15:43:54.197Z,97377.34
2023-01-19T15:46:22.796Z,97385.09
2023-01-19T15:48:50.872Z,97384.28
2023-01-19T15:51:20.459Z,97382.66
2023-01-19T15:53:49.230Z,97392.22
2023-01-19T15:56:18.343Z,97399.19
2023-01-19T15:58:46.041Z,97401.00
2023-01-19T16:01:15.525Z,97389.59
2023-01-19T16:03:43.337Z,97398.56
2023-01-19T16:06:12.710Z,97394.88
2023-01-19T16:08:40.334Z,97397.72
2023-01-19T16:11:10.724Z,97408.34
2023-01-19T16:13:39.160Z,97402.22
2023-01-19T16:16:16.073Z,97404.88
2023-01-19T16:18:44.362Z,97410.78
2023-01-19T16:21:12.578Z,97410.19
2023-01-19T16:23:40.201Z,97408.34
2023-01-19T16:26:34.923Z,97411.00
2023-01-19T16:29:10.561Z,97419.78
2023-01-19T16:31:39.696Z,97417.94
2023-01-19T16:34:08.810Z,97416.09
2023-01-19T16:36:39.528Z,97417.75
2023-01-19T16:39:12.483Z,97423.63
2023-01-19T16:41:40.740Z,97422.63
2023-01-19T16:44:09.601Z,97424.25
2023-01-19T16:46:40.060Z,97423.84
2023-01-19T16:49:18.954Z,97432.41
2023-01-19T16:51:47.615Z,97432.41
2023-01-19T16:54:17.992Z,97430.38
2023-01-19T16:56:46.070Z,97435.25
2023-01-19T16:59:16.743Z,97427.09
2023-01-19T17:01:45.683Z,97429.53
2023-01-19T17:04:13.749Z,97429.31
2023-01-19T17:06:41.811Z,97430.72
2023-01-19T17:09:09.892Z,97432.38
2023-01-19T17:11:40.158Z,97423.97
2023-01-19T17:14:13.773Z,97431.94
2023-01-19T17:16:43.125Z,97432.16
2023-01-19T17:19:15.227Z,97425.81
2023-01-19T17:21:48.577Z,97423.75
2023-01-19T17:24:16.146Z,97430.28
2023-01-19T17:26:45.972Z,97425.38
2023-01-19T17:29:15.526Z,97421.69
2023-01-19T17:31:44.048Z,97427.41
2023-01-19T17:34:11.369Z,97429.00
2023-01-19T17:36:40.911Z,97424.50
2023-01-19T17:39:11.449Z,97433.91
2023-01-19T17:41:39.342Z,97431.03
2023-01-19T17:44:06.842Z,97428.19
2023-01-19T17:46:38.362Z,97427.97
2023-01-19T17:49:07.586Z,97430.41
2023-01-19T17:51:35.468Z,97435.13
2023-01-19T17:54:04.515Z,97438.78
2023-01-19T17:56:36.728Z,97443.69
2023-01-19T17:59:06.489Z,97442.44
2023-01-19T18:01:36.987Z,97427.91
2023-01-19T18:04:04.535Z,97442.59
2023-01-19T18:06:32.783Z,97441.59
2023-01-19T18:09:00.179Z,97443.81
2023-01-19T18:11:28.366Z,97443.59
2023-01-19T18:13:55.793Z,97448.47
2023-01-19T18:16:25.611Z,97456.84
2023-01-19T18:18:53.875Z,97454.19
2023-01-19T18:21:23.517Z,97451.91
2023-01-19T18:23:51.775Z,97458.88
2023-01-19T18:26:21.999Z,97461.50
2023-01-19T18:28:49.890Z,97458.63
2023-01-19T18:31:19.214Z,97453.69
2023-01-19T18:33:48.498Z,97455.69
2023-01-19T18:36:17.100Z,97460.41
2023-01-19T18:38:45.198Z,97458.59
2023-01-19T18:41:15.924Z,97456.53
2023-01-19T18:43:43.682Z,97469.59
2023-01-19T18:46:11.713Z,97469.59
2023-01-19T18:48:39.718Z,97471.63
2023-01-19T18:51:10.452Z,97479.19
2023-01-19T18:53:38.058Z,97477.75
2023-01-19T18:56:07.085Z,97475.28
2023-01-19T18:58:37.633Z,97473.25
2023-01-19T19:01:16.384Z,97464.66
2023-01-19T19:03:43.785Z,97477.94
2023-01-19T19:06:11.660Z,97477.75
2023-01-19T19:08:40.411Z,97483.88
2023-01-19T19:11:08.674Z,97493.44
2023-01-19T19:13:37.758Z,97498.56
2023-01-19T19:16:06.983Z,97505.94
2023-01-19T19:18:36.294Z,97509.63
2023-01-19T19:21:09.599Z,97512.06
2023-01-19T19:23:37.579Z,97500.63
2023-01-19T19:26:07.670Z,97509.63
2023-01-19T19:28:36.482Z,97509.63
2023-01-19T19:31:10.673Z,97515.94
2023-01-19T19:33:39.259Z,97517.00
2023-01-19T19:36:08.568Z,97522.06
2023-01-19T19:38:41.086Z,97536.41
2023-01-19T19:41:11.817Z,97541.91
2023-01-19T19:43:39.445Z,97540.09
2023-01-19T19:46:10.121Z,97542.75
2023-01-19T19:48:39.373Z,97541.91
2023-01-19T19:51:18.340Z,97543.56
2023-01-19T19:53:50.835Z,97541.91
2023-01-19T19:56:21.182Z,97551.34
2023-01-19T19:58:49.622Z,97555.03
2023-01-19T20:01:26.100Z,97555.84
2023-01-19T20:03:54.705Z,97558.69
2023-01-19T20:06:24.781Z,97561.34
2023-01-19T20:08:54.610Z,97558.28
2023-01-19T20:11:25.686Z,97559.09
2023-01-19T20:13:53.138Z,97577.06
2023-01-19T20:16:23.167Z,97572.16
2023-01-19T20:18:54.104Z,97579.50
2023-01-19T20:21:27.874Z,97583.97
2023-01-19T20:23:59.290Z,97589.66
2023-01-19T20:26:30.008Z,97592.91
2023-01-19T20:29:02.980Z,97599.44
2023-01-19T20:31:33.663Z,97597.19
2023-01-19T20:34:04.887Z,97603.72
2023-01-19T20:36:33.003Z,97603.09
2023-01-19T20:39:00.532Z,97606.97
2023-01-19T20:41:28.196Z,97621.47
2023-01-19T20:43:55.525Z,97618.22
2023-01-19T20:46:23.242Z,97619.44
2023-01-19T20:48:52.934Z,97628.56
2023-01-19T20:51:22.336Z,97633.50
2023-01-19T20:53:49.780Z,97635.09
2023-01-19T20:56:17.349Z,97630.84
2023-01-19T20:58:45.255Z,97648.00
2023-01-19T21:01:25.383Z,97647.19
2023-01-19T21:03:53.180Z,97646.34
2023-01-19T21:06:21.702Z,97642.88
2023-01-19T21:08:52.071Z,97632.03
2023-01-19T21:11:20.995Z,97632.41
2023-01-19T21:13:48.712Z,97632.25
2023-01-19T21:16:16.376Z,97633.28
2023-01-19T21:18:43.686Z,97631.63
2023-01-19T21:21:28.402Z,97640.03
2023-01-19T21:23:58.040Z,97642.69
2023-01-19T21:26:26.037Z,97647.78
2023-01-19T21:28:53.623Z,97655.78
2023-01-19T21:31:26.244Z,97650.88
2023-01-19T21:33:54.995Z,97652.50
2023-01-19T21:36:23.862Z,97663.97
2023-01-19T21:38:52.306Z,97661.53
2023-01-19T21:41:20.362Z,97663.56
2023-01-19T21:43:47.673Z,97660.31
2023-01-19T21:46:19.256Z,97669.34
2023-01-19T21:48:47.502Z,97664.22
2023-01-19T21:51:15.618Z,97667.06
2023-01-19T21:53:43.412Z,97673.44
2023-01-19T21:56:11.488Z,97676.28
2023-01-19T21:58:38.869Z,97682.41
2023-01-19T22:01:13.798Z,97686.13
2023-01-19T22:03:42.120Z,97681.81
2023-01-19T22:06:13.260Z,97689.78
2023-01-19T22:08:41.418Z,97686.53
2023-01-19T22:11:11.253Z,97689.41
2023-01-19T22:13:39.026Z,97684.28
2023-01-19T22:16:10.298Z,97689.81
2023-01-19T22:18:38.984Z,97696.97
2023-01-19T22:21:12.781Z,97702.50
2023-01-19T22:23:40.397Z,97694.75
2023-01-19T22:26:08.936Z,97693.09
2023-01-19T22:28:36.574Z,97699.66
2023-01-19T22:31:09.477Z,97702.50
2023-01-19T22:33:37.881Z,97706.22
2023-01-19T22:36:15.021Z,97708.25
2023-01-19T22:38:44.026Z,97711.94
2023-01-19T22:41:19.826Z,97705.00
2023-01-19T22:43:47.933Z,97712.34
2023-01-19T22:46:19.729Z,97711.31
2023-01-19T22:48:48.444Z,97707.84
2023-01-19T22:51:17.092Z,97707.03
2023-01-19T22:53:44.939Z,97711.94
2023-01-19T22:56:16.306Z,97712.78
2023-01-19T22:58:44.470Z,97720.16
2023-01-19T23:01:19.109Z,97727.09
2023-01-19T23:03:46.676Z,97722.19
2023-01-19T23:06:20.852Z,97726.66
2023-01-19T23:08:48.635Z,97725.84
2023-01-19T23:11:19.268Z,97726.09
2023-01-19T23:13:46.643Z,97729.13
2023-01-19T23:16:14.691Z,97728.94
2023-01-19T23:18:42.946Z,97728.75
2023-01-19T23:21:16.820Z,97733.22
2023-01-19T23:23:44.913Z,97733.22
2023-01-19T23:26:18.334Z,97728.94
2023-01-19T23:28:46.802Z,97731.59
2023-01-19T23:31:18.782Z,97731.59
2023-01-19T23:33:46.195Z,97729.13
2023-01-19T23:36:14.759Z,97729.34
2023-01-19T23:38:42.848Z,97742.00
2023-01-19T23:41:10.334Z,97746.31
2023-01-19T23:43:37.588Z,97753.69
2023-01-19T23:46:07.375Z,97761.44
2023-01-19T23:48:35.788Z,97764.09
2023-01-19T23:51:15.174Z,97770.66
2023-01-19T23:53:42.705Z,97774.94
2023-01-19T23:56:22.033Z,97771.66
2023-01-19T23:58:54.507Z,97772.28
